Wetterstation Vordersexau
Wetterdaten: Woche 09.01.17 - 15.01.17 (KW2)
Datum Zeit Temp. A. Feuchte A. Luftdruck Regen Wind Richtung Taupunkt Windchill Windben
09.01.2017 00:00 -1,7 C 87 % 1028,3 hPa 0,0 l/m 0,0 km/h O-NO -3,6 C -1,7 C 0,0 km/h
09.01.2017 01:00 -2,1 C 87 % 1028,1 hPa 0,0 l/m 0,0 km/h O-NO -4,0 C -2,1 C 0,0 km/h
09.01.2017 02:00 -2,2 C 87 % 1027,8 hPa 0,0 l/m 0,0 km/h O-NO -4,1 C -2,2 C 0,0 km/h
09.01.2017 03:00 -2,1 C 87 % 1027,8 hPa 0,0 l/m 0,0 km/h O-NO -4,0 C -2,1 C 0,0 km/h
09.01.2017 04:00 -2,1 C 87 % 1027,5 hPa 0,0 l/m 0,0 km/h O-NO -4,0 C -2,1 C 0,0 km/h
09.01.2017 05:00 -1,9 C 87 % 1027,1 hPa 0,0 l/m 0,0 km/h O-NO -3,8 C -1,9 C 0,0 km/h
09.01.2017 06:00 -1,9 C 87 % 1026,7 hPa 0,0 l/m 0,0 km/h O-NO -3,8 C -1,9 C 0,0 km/h
09.01.2017 07:00 -1,5 C 86 % 1026,3 hPa 0,0 l/m 0,0 km/h O-NO -3,5 C -1,5 C 0,0 km/h
09.01.2017 08:00 -1,5 C 86 % 1026,0 hPa 0,0 l/m 0,0 km/h O-NO -3,5 C -1,5 C 0,0 km/h
09.01.2017 09:00 -1,1 C 86 % 1026,1 hPa 0,0 l/m 0,0 km/h O-NO -3,1 C -1,1 C 0,0 km/h
09.01.2017 10:00 0,1 C 86 % 1026,0 hPa 0,0 l/m 0,0 km/h O-NO -2,0 C 0,1 C 0,0 km/h
09.01.2017 11:00 1,6 C 87 % 1025,9 hPa 0,0 l/m 0,0 km/h O-NO -0,3 C 1,6 C 0,0 km/h
09.01.2017 12:00 2,5 C 86 % 1025,2 hPa 0,0 l/m 0,0 km/h O-NO 0,4 C 2,5 C 0,0 km/h
09.01.2017 13:00 3,0 C 85 % 1024,3 hPa 0,0 l/m 0,0 km/h O-NO 0,7 C 3,0 C 0,0 km/h
09.01.2017 14:00 2,9 C 82 % 1023,4 hPa 0,0 l/m 0,0 km/h O-SO 0,1 C 2,9 C 0,0 km/h
09.01.2017 15:00 2,5 C 83 % 1023,0 hPa 0,0 l/m 0,0 km/h O-SO -0,1 C 2,5 C 0,0 km/h
09.01.2017 16:00 1,6 C 83 % 1022,4 hPa 0,0 l/m 0,0 km/h S-SO -1,0 C 1,6 C 0,0 km/h
09.01.2017 17:00 0,4 C 84 % 1022,1 hPa 0,0 l/m 0,0 km/h SO -2,0 C 0,4 C 0,0 km/h
09.01.2017 18:00 0,2 C 82 % 1021,8 hPa 0,0 l/m 0,0 km/h S -2,5 C 0,2 C 0,0 km/h
09.01.2017 19:00 0,2 C 81 % 1020,9 hPa 0,0 l/m 0,0 km/h SO -2,7 C 0,2 C 0,0 km/h
09.01.2017 20:00 -0,2 C 82 % 1020,6 hPa 0,0 l/m 0,0 km/h SO -2,9 C -0,2 C 0,0 km/h
09.01.2017 21:00 -0,3 C 84 % 1019,3 hPa 0,0 l/m 0,0 km/h O-SO -2,7 C -0,3 C 0,0 km/h
09.01.2017 22:00 0,0 C 82 % 1018,2 hPa 0,0 l/m 0,0 km/h O-SO -2,7 C 0,0 C 0,0 km/h
09.01.2017 23:00 -0,9 C 83 % 1017,1 hPa 0,0 l/m 0,0 km/h O-SO -3,4 C -0,9 C 0,0 km/h
10.01.2017 00:00 -2,4 C 85 % 1016,3 hPa 0,0 l/m 0,0 km/h O-SO -4,6 C -2,4 C 0,0 km/h
10.01.2017 01:00 -1,9 C 86 % 1015,2 hPa 0,0 l/m 0,0 km/h O-SO -3,9 C -1,9 C 0,0 km/h
10.01.2017 02:00 -1,2 C 86 % 1013,6 hPa 0,0 l/m 0,0 km/h NO -3,2 C -1,2 C 0,0 km/h
10.01.2017 03:00 -1,1 C 85 % 1012,5 hPa 0,0 l/m 0,0 km/h O-NO -3,3 C -1,1 C 0,0 km/h
10.01.2017 04:00 -1,0 C 86 % 1011,6 hPa 0,0 l/m 0,0 km/h O-SO -3,0 C -1,0 C 0,0 km/h
10.01.2017 05:00 -0,9 C 86 % 1010,1 hPa 0,0 l/m 0,0 km/h O-NO -2,9 C -0,9 C 0,0 km/h
10.01.2017 06:00 -0,8 C 87 % 1008,9 hPa 0,0 l/m 0,0 km/h O-NO -2,7 C -0,8 C 0,0 km/h
10.01.2017 07:00 -0,2 C 87 % 1008,0 hPa 0,0 l/m 0,0 km/h O-SO -2,1 C -0,2 C 0,0 km/h
10.01.2017 08:00 0,0 C 86 % 1007,5 hPa 0,0 l/m 0,0 km/h O-SO -2,1 C 0,0 C 0,0 km/h
10.01.2017 09:00 0,5 C 86 % 1006,9 hPa 0,0 l/m 0,0 km/h O-SO -1,6 C 0,5 C 0,0 km/h
10.01.2017 10:00 1,1 C 85 % 1006,6 hPa 0,0 l/m 0,0 km/h O-SO -1,1 C 1,1 C 0,0 km/h
10.01.2017 11:00 1,9 C 86 % 1006,5 hPa 0,0 l/m 0,0 km/h O-SO -0,2 C 1,9 C 0,0 km/h
10.01.2017 12:00 1,9 C 86 % 1006,3 hPa 0,0 l/m 0,0 km/h O-SO -0,2 C 1,9 C 0,0 km/h
10.01.2017 13:00 1,9 C 86 % 1006,1 hPa 0,0 l/m 0,0 km/h O-SO -0,2 C 1,9 C 0,0 km/h
10.01.2017 14:00 1,3 C 86 % 1006,2 hPa 0,0 l/m 0,0 km/h O-SO -0,8 C 1,3 C 0,0 km/h
10.01.2017 15:00 1,6 C 86 % 1006,9 hPa 0,0 l/m 0,0 km/h O-SO -0,5 C 1,6 C 0,0 km/h
10.01.2017 16:00 1,1 C 86 % 1007,7 hPa 0,0 l/m 0,0 km/h O-SO -1,0 C 1,1 C 0,0 km/h
10.01.2017 17:00 0,4 C 87 % 1008,5 hPa 0,0 l/m 0,0 km/h O-SO -1,5 C 0,4 C 0,0 km/h
10.01.2017 18:00 0,2 C 87 % 1009,7 hPa 0,0 l/m 0,0 km/h O-SO -1,7 C 0,2 C 0,0 km/h
10.01.2017 19:00 0,2 C 87 % 1010,2 hPa 0,0 l/m 0,0 km/h O-SO -1,7 C 0,2 C 0,0 km/h
10.01.2017 20:00 0,2 C 86 % 1010,8 hPa 0,0 l/m 0,0 km/h O-SO -1,9 C 0,2 C 0,0 km/h
10.01.2017 21:00 0,3 C 86 % 1011,2 hPa 0,0 l/m 0,0 km/h O-SO -1,8 C 0,3 C 0,0 km/h
10.01.2017 22:00 0,3 C 85 % 1011,7 hPa 0,0 l/m 0,0 km/h O-SO -1,9 C 0,3 C 0,0 km/h
10.01.2017 23:00 0,2 C 85 % 1011,9 hPa 0,0 l/m 0,0 km/h O-SO -2,0 C 0,2 C 0,0 km/h
11.01.2017 00:00 0,3 C 85 % 1012,7 hPa 0,0 l/m 0,0 km/h O-SO -1,9 C 0,3 C 0,0 km/h
11.01.2017 01:00 0,2 C 85 % 1012,6 hPa 0,0 l/m 0,0 km/h O-SO -2,0 C 0,2 C 0,0 km/h
11.01.2017 02:00 0,2 C 85 % 1012,9 hPa 0,0 l/m 0,0 km/h O-SO -2,0 C 0,2 C 0,0 km/h
11.01.2017 03:00 0,3 C 84 % 1013,4 hPa 0,0 l/m 0,0 km/h O-SO -2,1 C 0,3 C 0,0 km/h
11.01.2017 04:00 0,4 C 84 % 1013,7 hPa 0,0 l/m 0,0 km/h O-SO -2,0 C 0,4 C 0,0 km/h
11.01.2017 05:00 0,5 C 84 % 1013,5 hPa 0,0 l/m 0,0 km/h O-SO -1,9 C 0,5 C 0,0 km/h
11.01.2017 06:00 0,3 C 84 % 1013,7 hPa 0,0 l/m 0,0 km/h O-SO -2,1 C 0,3 C 0,0 km/h
11.01.2017 07:00 0,3 C 83 % 1013,8 hPa 0,0 l/m 0,0 km/h O-SO -2,2 C 0,3 C 0,0 km/h
11.01.2017 08:00 0,2 C 83 % 1014,0 hPa 0,0 l/m 0,0 km/h O-SO -2,3 C 0,2 C 0,0 km/h
11.01.2017 09:00 0,6 C 83 % 1013,7 hPa 0,0 l/m 0,0 km/h S-SW -1,9 C 0,6 C 0,0 km/h
11.01.2017 10:00 2,3 C 82 % 1013,8 hPa 0,0 l/m 0,0 km/h S -0,4 C 2,3 C 0,0 km/h
11.01.2017 11:00 3,3 C 86 % 1014,3 hPa 0,0 l/m 0,0 km/h S-SO 1,2 C 3,3 C 0,0 km/h
11.01.2017 12:00 5,8 C 83 % 1013,2 hPa 0,0 l/m 1,3 km/h SW 3,1 C 5,8 C 0,7 km/h
11.01.2017 13:00 5,5 C 75 % 1011,7 hPa 0,5 l/m 30,5 km/h SW 1,4 C -5,8 C 16,9 km/h
11.01.2017 14:00 4,8 C 75 % 1010,6 hPa 0,5 l/m 21,4 km/h W-SW 0,8 C -4,0 C 11,9 km/h
11.01.2017 15:00 4,8 C 77 % 1009,2 hPa 0,0 l/m 29,8 km/h SW 1,1 C -6,6 C 16,6 km/h
11.01.2017 16:00 4,8 C 77 % 1009,3 hPa 0,0 l/m 19,4 km/h W-SW 1,1 C -3,2 C 10,8 km/h
11.01.2017 17:00 4,4 C 80 % 1009,8 hPa 0,0 l/m 24,0 km/h W-SW 1,3 C -5,4 C 13,3 km/h
11.01.2017 18:00 4,3 C 84 % 1009,7 hPa 0,0 l/m 33,7 km/h SW 1,8 C -8,3 C 18,7 km/h
11.01.2017 19:00 3,9 C 86 % 1010,2 hPa 0,0 l/m 19,4 km/h S-SW 1,8 C -4,3 C 10,8 km/h
11.01.2017 20:00 3,9 C 86 % 1010,2 hPa 0,5 l/m 29,2 km/h SW 1,8 C -7,7 C 16,2 km/h
11.01.2017 21:00 4,4 C 86 % 1010,9 hPa 0,0 l/m 14,9 km/h W-SW 2,3 C -1,6 C 8,3 km/h
11.01.2017 22:00 4,7 C 86 % 1011,5 hPa 0,0 l/m 25,9 km/h W-SW 2,6 C -5,6 C 14,4 km/h
11.01.2017 23:00 4,5 C 85 % 1012,1 hPa 0,0 l/m 20,1 km/h N-NW 2,2 C -3,9 C 11,2 km/h
12.01.2017 00:00 4,6 C 85 % 1013,2 hPa 0,5 l/m 0,0 km/h W 2,3 C 4,6 C 0,0 km/h
12.01.2017 01:00 3,9 C 85 % 1013,9 hPa 1,0 l/m 0,0 km/h S 1,6 C 3,9 C 0,0 km/h
12.01.2017 02:00 3,8 C 85 % 1014,2 hPa 0,0 l/m 0,0 km/h S-SW 1,5 C 3,8 C 0,0 km/h
12.01.2017 03:00 3,9 C 84 % 1014,6 hPa 0,0 l/m 0,0 km/h W 1,4 C 3,9 C 0,0 km/h
12.01.2017 04:00 4,8 C 83 % 1014,3 hPa 0,0 l/m 0,0 km/h W 2,2 C 4,8 C 0,0 km/h
12.01.2017 05:00 4,9 C 83 % 1014,2 hPa 0,5 l/m 5,8 km/h SW 2,3 C 4,9 C 3,2 km/h
12.01.2017 06:00 4,9 C 83 % 1013,9 hPa 0,0 l/m 18,1 km/h W-SW 2,3 C -2,5 C 10,1 km/h
12.01.2017 07:00 5,3 C 86 % 1014,5 hPa 0,0 l/m 20,1 km/h SW 3,2 C -2,8 C 11,2 km/h
12.01.2017 08:00 5,3 C 86 % 1014,8 hPa 0,0 l/m 7,8 km/h W-SW 3,2 C 4,1 C 4,3 km/h
12.01.2017 09:00 5,6 C 86 % 1014,5 hPa 0,0 l/m 15,6 km/h W-SW 3,4 C -0,5 C 8,6 km/h
12.01.2017 10:00 6,2 C 84 % 1014,7 hPa 0,0 l/m 20,7 km/h SW 3,7 C -1,9 C 11,5 km/h
12.01.2017 11:00 6,4 C 84 % 1014,4 hPa 0,0 l/m 20,7 km/h W-SW 3,9 C -1,6 C 11,5 km/h
12.01.2017 12:00 6,3 C 84 % 1013,5 hPa 0,0 l/m 8,4 km/h S 3,8 C 4,7 C 4,7 km/h
12.01.2017 13:00 6,2 C 86 % 1011,9 hPa 0,0 l/m 20,1 km/h SW 4,0 C -1,7 C 11,2 km/h
12.01.2017 14:00 7,0 C 83 % 1010,4 hPa 0,0 l/m 0,0 km/h SW 4,3 C 7,0 C 0,0 km/h
12.01.2017 15:00 6,9 C 82 % 1009,0 hPa 0,0 l/m 2,6 km/h S 4,0 C 6,9 C 1,4 km/h
12.01.2017 16:00 6,4 C 83 % 1007,6 hPa 0,0 l/m 0,0 km/h S-SO 3,7 C 6,4 C 0,0 km/h
12.01.2017 17:00 5,8 C 85 % 1005,7 hPa 0,0 l/m 0,0 km/h W-SW 3,5 C 5,8 C 0,0 km/h
12.01.2017 18:00 6,4 C 83 % 1003,9 hPa 0,0 l/m 7,8 km/h S 3,7 C 5,2 C 4,3 km/h
12.01.2017 19:00 6,2 C 83 % 1001,4 hPa 0,0 l/m 22,7 km/h SW 3,5 C -2,6 C 12,6 km/h
12.01.2017 20:00 6,9 C 81 % 999,2 hPa 0,0 l/m 14,9 km/h SW 3,9 C 1,4 C 8,3 km/h
12.01.2017 21:00 7,1 C 79 % 997,3 hPa 0,0 l/m 20,1 km/h S 3,7 C -0,5 C 11,2 km/h
12.01.2017 22:00 7,4 C 79 % 995,5 hPa 0,0 l/m 31,1 km/h W 4,0 C -3,3 C 17,3 km/h
12.01.2017 23:00 8,6 C 80 % 994,1 hPa 0,0 l/m 18,1 km/h SW 5,3 C 2,2 C 10,1 km/h
13.01.2017 00:00 8,3 C 83 % 995,1 hPa 0,0 l/m 32,4 km/h SW 5,6 C -2,3 C 18,0 km/h
13.01.2017 01:00 7,6 C 74 % 995,7 hPa 0,0 l/m 44,7 km/h S-SW 3,3 C -5,4 C 24,8 km/h
13.01.2017 02:00 5,3 C 77 % 997,7 hPa 0,0 l/m 21,4 km/h W-SW 1,6 C -3,3 C 11,9 km/h
13.01.2017 03:00 4,9 C 78 % 998,7 hPa 0,0 l/m 20,7 km/h SW 1,4 C -3,6 C 11,5 km/h
13.01.2017 04:00 3,6 C 82 % 1000,1 hPa 0,0 l/m 21,4 km/h W-SW 0,8 C -5,5 C 11,9 km/h
13.01.2017 05:00 2,9 C 84 % 1001,1 hPa 0,0 l/m 23,3 km/h W-SW 0,5 C -7,2 C 13,0 km/h
13.01.2017 06:00 2,4 C 85 % 1001,6 hPa 0,5 l/m 16,2 km/h SW 0,1 C -4,7 C 9,0 km/h
13.01.2017 07:00 2,6 C 79 % 1002,5 hPa 0,0 l/m 16,2 km/h W-NW -0,7 C -4,5 C 9,0 km/h
13.01.2017 08:00 2,4 C 76 % 1003,8 hPa 0,0 l/m 0,0 km/h N-NW -1,4 C 2,4 C 0,0 km/h
13.01.2017 09:00 1,1 C 79 % 1004,3 hPa 0,0 l/m 0,0 km/h O-SO -2,1 C 1,1 C 0,0 km/h
13.01.2017 10:00 1,9 C 81 % 1003,9 hPa 0,0 l/m 0,0 km/h W-NW -1,0 C 1,9 C 0,0 km/h
13.01.2017 11:00 2,9 C 75 % 1003,9 hPa 0,0 l/m 0,0 km/h W-NW -1,1 C 2,9 C 0,0 km/h
13.01.2017 12:00 1,5 C 78 % 1004,2 hPa 0,0 l/m 0,0 km/h W-SW -1,9 C 1,5 C 0,0 km/h
13.01.2017 13:00 3,6 C 71 % 1004,1 hPa 0,0 l/m 10,4 km/h W -1,2 C 0,2 C 5,8 km/h
13.01.2017 14:00 2,3 C 79 % 1004,5 hPa 0,0 l/m 1,9 km/h W-SW -1,0 C 2,3 C 1,1 km/h
13.01.2017 15:00 2,4 C 78 % 1005,0 hPa 0,0 l/m 24,6 km/h S-SW -1,0 C -8,3 C 13,7 km/h
13.01.2017 16:00 1,4 C 83 % 1005,4 hPa 0,0 l/m 0,0 km/h W -1,2 C 1,4 C 0,0 km/h
13.01.2017 17:00 1,3 C 83 % 1005,7 hPa 0,0 l/m 0,0 km/h W-SW -1,3 C 1,3 C 0,0 km/h
13.01.2017 18:00 1,4 C 81 % 1005,9 hPa 0,0 l/m 1,3 km/h W-SW -1,5 C 1,4 C 0,7 km/h
13.01.2017 19:00 1,0 C 84 % 1006,3 hPa 0,0 l/m 11,7 km/h W -1,4 C -3,6 C 6,5 km/h
13.01.2017 20:00 0,9 C 85 % 1006,4 hPa 0,0 l/m 13,6 km/h S-SW -1,3 C -5,0 C 7,6 km/h
13.01.2017 21:00 0,8 C 85 % 1005,9 hPa 0,0 l/m 1,3 km/h W-SW -1,4 C 0,8 C 0,7 km/h
13.01.2017 22:00 0,7 C 85 % 1005,8 hPa 0,0 l/m 19,4 km/h W-SW -1,5 C -8,4 C 10,8 km/h
13.01.2017 23:00 0,6 C 86 % 1005,6 hPa 0,0 l/m 13,6 km/h SW -1,5 C -5,4 C 7,6 km/h
14.01.2017 00:00 0,4 C 87 % 1005,4 hPa 0,0 l/m 0,0 km/h SW -1,5 C 0,4 C 0,0 km/h
14.01.2017 01:00 0,5 C 86 % 1006,3 hPa 0,0 l/m 0,0 km/h W-SW -1,6 C 0,5 C 0,0 km/h
14.01.2017 02:00 0,5 C 86 % 1006,7 hPa 0,0 l/m 0,0 km/h W-SW -1,6 C 0,5 C 0,0 km/h
14.01.2017 03:00 0,8 C 85 % 1007,4 hPa 0,0 l/m 4,5 km/h SW -1,4 C 0,8 C 2,5 km/h
14.01.2017 04:00 1,1 C 86 % 1008,1 hPa 0,0 l/m 0,0 km/h W-SW -1,0 C 1,1 C 0,0 km/h
14.01.2017 05:00 1,1 C 86 % 1008,7 hPa 0,5 l/m 0,0 km/h W-SW -1,0 C 1,1 C 0,0 km/h
14.01.2017 06:00 1,3 C 86 % 1009,3 hPa 0,0 l/m 0,0 km/h W-SW -0,8 C 1,3 C 0,0 km/h
14.01.2017 07:00 1,3 C 87 % 1009,7 hPa 0,0 l/m 0,0 km/h SW -0,6 C 1,3 C 0,0 km/h
14.01.2017 08:00 0,7 C 87 % 1010,5 hPa 0,0 l/m 0,0 km/h W-SW -1,2 C 0,7 C 0,0 km/h
14.01.2017 09:00 0,3 C 86 % 1011,3 hPa 0,0 l/m 0,0 km/h W-SW -1,8 C 0,3 C 0,0 km/h
14.01.2017 10:00 0,5 C 85 % 1012,1 hPa 0,0 l/m 0,0 km/h W-SW -1,7 C 0,5 C 0,0 km/h
14.01.2017 11:00 0,8 C 83 % 1012,9 hPa 0,0 l/m 0,0 km/h W -1,8 C 0,8 C 0,0 km/h
14.01.2017 12:00 2,2 C 83 % 1013,2 hPa 0,5 l/m 0,0 km/h W -0,4 C 2,2 C 0,0 km/h
14.01.2017 13:00 1,9 C 87 % 1013,3 hPa 0,5 l/m 0,0 km/h W -0,0 C 1,9 C 0,0 km/h
14.01.2017 14:00 2,8 C 84 % 1013,6 hPa 1,0 l/m 0,0 km/h NW 0,4 C 2,8 C 0,0 km/h
14.01.2017 15:00 1,8 C 83 % 1013,9 hPa 0,5 l/m 8,4 km/h W -0,8 C -0,1 C 4,7 km/h
14.01.2017 16:00 1,4 C 83 % 1014,4 hPa 0,0 l/m 0,0 km/h W -1,2 C 1,4 C 0,0 km/h
14.01.2017 17:00 0,6 C 84 % 1014,6 hPa 0,5 l/m 0,0 km/h W -1,8 C 0,6 C 0,0 km/h
14.01.2017 18:00 0,4 C 86 % 1015,3 hPa 0,0 l/m 0,0 km/h W -1,7 C 0,4 C 0,0 km/h
14.01.2017 19:00 -0,2 C 87 % 1015,6 hPa 0,0 l/m 0,0 km/h W -2,1 C -0,2 C 0,0 km/h
14.01.2017 20:00 -0,9 C 87 % 1015,6 hPa 0,0 l/m 0,0 km/h W -2,8 C -0,9 C 0,0 km/h
14.01.2017 21:00 -0,2 C 86 % 1015,6 hPa 0,0 l/m 0,0 km/h W -2,3 C -0,2 C 0,0 km/h
14.01.2017 22:00 -0,8 C 87 % 1015,7 hPa 0,0 l/m 0,0 km/h W -2,7 C -0,8 C 0,0 km/h
14.01.2017 23:00 -0,7 C 87 % 1015,7 hPa 0,0 l/m 0,0 km/h W -2,6 C -0,7 C 0,0 km/h
15.01.2017 00:00 -0,8 C 86 % 1015,9 hPa 0,0 l/m 0,0 km/h W -2,8 C -0,8 C 0,0 km/h
15.01.2017 01:00 -0,9 C 86 % 1016,0 hPa 0,0 l/m 0,0 km/h W -2,9 C -0,9 C 0,0 km/h
15.01.2017 02:00 -0,9 C 86 % 1016,3 hPa 0,0 l/m 0,0 km/h W -2,9 C -0,9 C 0,0 km/h
15.01.2017 03:00 -1,4 C 86 % 1016,7 hPa 0,0 l/m 0,0 km/h W -3,4 C -1,4 C 0,0 km/h
15.01.2017 04:00 -1,4 C 86 % 1016,8 hPa 0,0 l/m 0,0 km/h W -3,4 C -1,4 C 0,0 km/h
15.01.2017 05:00 -1,7 C 86 % 1016,8 hPa 0,0 l/m 0,0 km/h W -3,7 C -1,7 C 0,0 km/h
15.01.2017 06:00 -1,6 C 86 % 1017,1 hPa 0,0 l/m 0,0 km/h W -3,6 C -1,6 C 0,0 km/h
15.01.2017 07:00 -1,4 C 86 % 1017,4 hPa 0,0 l/m 0,0 km/h W -3,4 C -1,4 C 0,0 km/h
15.01.2017 08:00 -1,5 C 86 % 1018,2 hPa 0,0 l/m 0,0 km/h W -3,5 C -1,5 C 0,0 km/h
15.01.2017 09:00 -0,9 C 86 % 1018,8 hPa 0,0 l/m 0,0 km/h W -2,9 C -0,9 C 0,0 km/h
15.01.2017 10:00 0,2 C 85 % 1019,3 hPa 0,0 l/m 0,0 km/h W -2,0 C 0,2 C 0,0 km/h
15.01.2017 11:00 1,2 C 86 % 1019,6 hPa 0,0 l/m 0,0 km/h W -0,9 C 1,2 C 0,0 km/h
15.01.2017 12:00 1,9 C 87 % 1019,4 hPa 0,0 l/m 0,0 km/h W -0,0 C 1,9 C 0,0 km/h
15.01.2017 13:00 1,6 C 84 % 1019,4 hPa 0,0 l/m 0,0 km/h W -0,8 C 1,6 C 0,0 km/h
15.01.2017 14:00 1,2 C 86 % 1019,3 hPa 0,5 l/m 0,0 km/h W -0,9 C 1,2 C 0,0 km/h
15.01.2017 15:00 2,1 C 86 % 1019,2 hPa 0,0 l/m 0,0 km/h W 0,0 C 2,1 C 0,0 km/h
15.01.2017 16:00 0,8 C 86 % 1019,4 hPa 0,0 l/m 0,0 km/h W -1,3 C 0,8 C 0,0 km/h
15.01.2017 17:00 -0,8 C 87 % 1019,4 hPa 0,0 l/m 0,0 km/h W -2,7 C -0,8 C 0,0 km/h
15.01.2017 18:00 -2,1 C 87 % 1019,6 hPa 0,0 l/m 0,0 km/h W -4,0 C -2,1 C 0,0 km/h
15.01.2017 19:00 -1,8 C 87 % 1019,7 hPa 0,0 l/m 0,0 km/h W -3,7 C -1,8 C 0,0 km/h
15.01.2017 20:00 -1,9 C 87 % 1019,6 hPa 0,0 l/m 0,0 km/h W -3,8 C -1,9 C 0,0 km/h
15.01.2017 21:00 -3,1 C 87 % 1019,7 hPa 0,0 l/m 0,0 km/h W -4,9 C -3,1 C 0,0 km/h
15.01.2017 22:00 -4,7 C 87 % 1019,6 hPa 0,0 l/m 0,0 km/h W -6,5 C -4,7 C 0,0 km/h
15.01.2017 23:00 -4,8 C 87 % 1019,4 hPa 0,0 l/m 0,0 km/h W -6,6 C -4,8 C 0,0 km/h
Min-Datum _ 15.01.17 13.01.17 12.01.17 - 09.01.17 - 15.01.17 13.01.17 09.01.17
_ Min-Zeit 23:10 13:10 23:10 - 00:10 - 23:10 22:10 00:10
Minimum _ -4,8 C 71 % 994,1 hPa - 0,0 km/h - -6,6 C -8,4 C 0,0 km/h
Max-Datum _ 12.01.17 09.01.17 09.01.17 12.01.17 13.01.17 - 13.01.17 12.01.17 13.01.17
_ Max-Zeit 23:10 00:10 00:10 01:10 01:10 - 00:10 14:10 01:10
Maximum _ 8,6 C 87 % 1028,3 hPa 1,0 l/m 44,7 km/h
S-SW
- 5,6 C 7,0 C 24,8 km/h
S-SW
Durchschnitt _ 1,6 C 84 % 1012,6 hPa #8,3 l/m 4,9 km/h W -0,8 C -0,3 C 2,8 km/h
www.sexauwetter.de